sensor_id;sensor_type;location;lat;lon;timestamp;pressure;altitude;pressure_sealevel;temperature;humidity
3260;BME280;68938;48.150;14.004;2023-10-19T00:02:09;96813.09;;;13.09;56.52
3260;BME280;68938;48.150;14.004;2023-10-19T00:04:36;96813.28;;;13.05;56.84
3260;BME280;68938;48.150;14.004;2023-10-19T00:07:03;96800.69;;;13.01;57.27
3260;BME280;68938;48.150;14.004;2023-10-19T00:09:31;96805.19;;;12.97;57.05
3260;BME280;68938;48.150;14.004;2023-10-19T00:11:58;96810.72;;;12.91;57.80
3260;BME280;68938;48.150;14.004;2023-10-19T00:14:25;96813.66;;;12.85;57.65
3260;BME280;68938;48.150;14.004;2023-10-19T00:16:52;96805.22;;;12.83;57.71
3260;BME280;68938;48.150;14.004;2023-10-19T00:19:19;96808.44;;;12.72;58.37
3260;BME280;68938;48.150;14.004;2023-10-19T00:21:47;96801.53;;;12.73;57.91
3260;BME280;68938;48.150;14.004;2023-10-19T00:24:14;96799.91;;;12.72;58.37
3260;BME280;68938;48.150;14.004;2023-10-19T00:26:41;96794.00;;;12.70;58.23
3260;BME280;68938;48.150;14.004;2023-10-19T00:29:08;96788.13;;;12.68;58.19
3260;BME280;68938;48.150;14.004;2023-10-19T00:31:35;96785.72;;;12.65;58.18
3260;BME280;68938;48.150;14.004;2023-10-19T00:34:02;96773.16;;;12.60;58.55
3260;BME280;68938;48.150;14.004;2023-10-19T00:36:29;96771.69;;;12.56;58.61
3260;BME280;68938;48.150;14.004;2023-10-19T00:38:56;96762.31;;;12.55;58.62
3260;BME280;68938;48.150;14.004;2023-10-19T00:41:25;96758.72;;;12.57;58.52
3260;BME280;68938;48.150;14.004;2023-10-19T00:43:52;96755.31;;;12.57;58.30
3260;BME280;68938;48.150;14.004;2023-10-19T00:46:19;96752.84;;;12.55;58.44
3260;BME280;68938;48.150;14.004;2023-10-19T00:48:56;96754.22;;;12.47;58.60
3260;BME280;68938;48.150;14.004;2023-10-19T00:51:35;96753.50;;;12.45;59.03
3260;BME280;68938;48.150;14.004;2023-10-19T00:54:10;96747.63;;;12.43;59.06
3260;BME280;68938;48.150;14.004;2023-10-19T00:56:42;96730.91;;;12.36;59.63
3260;BME280;68938;48.150;14.004;2023-10-19T00:59:10;96741.19;;;12.36;58.98
3260;BME280;68938;48.150;14.004;2023-10-19T01:01:38;96732.19;;;12.28;59.21
3260;BME280;68938;48.150;14.004;2023-10-19T01:04:05;96724.56;;;12.27;59.26
3260;BME280;68938;48.150;14.004;2023-10-19T01:06:32;96723.84;;;12.25;59.25
3260;BME280;68938;48.150;14.004;2023-10-19T01:08:59;96719.22;;;12.16;59.59
3260;BME280;68938;48.150;14.004;2023-10-19T01:11:26;96725.38;;;12.13;59.74
3260;BME280;68938;48.150;14.004;2023-10-19T01:13:53;96734.56;;;12.17;59.69
3260;BME280;68938;48.150;14.004;2023-10-19T01:16:20;96731.09;;;12.18;59.46
3260;BME280;68938;48.150;14.004;2023-10-19T01:18:51;96729.22;;;12.20;59.55
3260;BME280;68938;48.150;14.004;2023-10-19T01:21:21;96726.66;;;12.20;59.33
3260;BME280;68938;48.150;14.004;2023-10-19T01:23:49;96736.22;;;12.18;59.23
3260;BME280;68938;48.150;14.004;2023-10-19T01:26:16;96732.00;;;12.17;59.21
3260;BME280;68938;48.150;14.004;2023-10-19T01:28:43;96727.75;;;12.16;59.42
3260;BME280;68938;48.150;14.004;2023-10-19T01:31:21;96725.94;;;12.18;59.35
3260;BME280;68938;48.150;14.004;2023-10-19T01:33:49;96715.09;;;12.13;59.23
3260;BME280;68938;48.150;14.004;2023-10-19T01:36:16;96714.25;;;12.13;59.21
3260;BME280;68938;48.150;14.004;2023-10-19T01:38:43;96701.69;;;12.08;59.56
3260;BME280;68938;48.150;14.004;2023-10-19T01:41:10;96694.91;;;12.07;59.85
3260;BME280;68938;48.150;14.004;2023-10-19T01:43:37;96696.63;;;12.06;59.81
3260;BME280;68938;48.150;14.004;2023-10-19T01:46:04;96689.84;;;12.05;59.91
3260;BME280;68938;48.150;14.004;2023-10-19T01:48:31;96677.34;;;11.99;59.97
3260;BME280;68938;48.150;14.004;2023-10-19T01:51:01;96680.84;;;11.98;60.22
3260;BME280;68938;48.150;14.004;2023-10-19T01:53:29;96680.50;;;11.90;60.54
3260;BME280;68938;48.150;14.004;2023-10-19T01:55:57;96668.72;;;11.86;59.84
3260;BME280;68938;48.150;14.004;2023-10-19T01:58:25;96654.53;;;11.79;60.77
3260;BME280;68938;48.150;14.004;2023-10-19T02:00:55;96654.53;;;11.79;60.67
3260;BME280;68938;48.150;14.004;2023-10-19T02:03:22;96661.78;;;11.72;60.95
3260;BME280;68938;48.150;14.004;2023-10-19T02:05:49;96660.66;;;11.62;61.37
3260;BME280;68938;48.150;14.004;2023-10-19T02:08:16;96674.88;;;11.53;61.82
3260;BME280;68938;48.150;14.004;2023-10-19T02:10:47;96681.75;;;11.53;62.42
3260;BME280;68938;48.150;14.004;2023-10-19T02:13:14;96688.16;;;11.46;62.60
3260;BME280;68938;48.150;14.004;2023-10-19T02:15:42;96684.19;;;11.40;62.20
3260;BME280;68938;48.150;14.004;2023-10-19T02:18:10;96692.06;;;11.37;61.97
3260;BME280;68938;48.150;14.004;2023-10-19T02:20:37;96687.09;;;11.34;62.12
3260;BME280;68938;48.150;14.004;2023-10-19T02:23:07;96672.69;;;11.31;62.29
3260;BME280;68938;48.150;14.004;2023-10-19T02:25:34;96677.75;;;11.33;62.82
3260;BME280;68938;48.150;14.004;2023-10-19T02:28:02;96676.09;;;11.32;62.71
3260;BME280;68938;48.150;14.004;2023-10-19T02:30:30;96667.75;;;11.28;62.95
3260;BME280;68938;48.150;14.004;2023-10-19T02:32:57;96655.75;;;11.29;62.95
3260;BME280;68938;48.150;14.004;2023-10-19T02:35:24;96665.34;;;11.25;62.55
3260;BME280;68938;48.150;14.004;2023-10-19T02:37:51;96657.66;;;11.25;62.53
3260;BME280;68938;48.150;14.004;2023-10-19T02:40:18;96655.09;;;11.25;61.96
3260;BME280;68938;48.150;14.004;2023-10-19T02:42:46;96659.00;;;11.17;62.20
3260;BME280;68938;48.150;14.004;2023-10-19T02:45:17;96666.53;;;11.04;62.95
3260;BME280;68938;48.150;14.004;2023-10-19T02:47:45;96663.56;;;10.96;62.98
3260;BME280;68938;48.150;14.004;2023-10-19T02:50:13;96658.34;;;10.97;63.26
3260;BME280;68938;48.150;14.004;2023-10-19T02:52:40;96648.19;;;10.96;63.61
3260;BME280;68938;48.150;14.004;2023-10-19T02:55:08;96650.09;;;10.92;63.78
3260;BME280;68938;48.150;14.004;2023-10-19T02:57:36;96633.28;;;10.86;63.59
3260;BME280;68938;48.150;14.004;2023-10-19T03:00:07;96633.56;;;10.82;64.12
3260;BME280;68938;48.150;14.004;2023-10-19T03:02:34;96622.00;;;10.75;64.36
3260;BME280;68938;48.150;14.004;2023-10-19T03:05:02;96625.47;;;10.74;64.13
3260;BME280;68938;48.150;14.004;2023-10-19T03:07:30;96623.72;;;10.74;63.67
3260;BME280;68938;48.150;14.004;2023-10-19T03:09:57;96645.72;;;10.62;64.22
3260;BME280;68938;48.150;14.004;2023-10-19T03:12:24;96637.63;;;10.54;64.55
3260;BME280;68938;48.150;14.004;2023-10-19T03:14:51;96627.38;;;10.54;64.52
3260;BME280;68938;48.150;14.004;2023-10-19T03:17:18;96625.53;;;10.56;64.06
3260;BME280;68938;48.150;14.004;2023-10-19T03:19:45;96623.81;;;10.57;64.19
3260;BME280;68938;48.150;14.004;2023-10-19T03:22:13;96630.66;;;10.56;64.07
3260;BME280;68938;48.150;14.004;2023-10-19T03:24:40;96625.72;;;10.53;63.84
3260;BME280;68938;48.150;14.004;2023-10-19T03:27:08;96635.38;;;10.48;64.15
3260;BME280;68938;48.150;14.004;2023-10-19T03:29:37;96635.97;;;10.37;64.30
3260;BME280;68938;48.150;14.004;2023-10-19T03:32:05;96630.09;;;10.35;64.37
3260;BME280;68938;48.150;14.004;2023-10-19T03:34:33;96616.22;;;10.39;64.38
3260;BME280;68938;48.150;14.004;2023-10-19T03:37:05;96621.91;;;10.44;64.06
3260;BME280;68938;48.150;14.004;2023-10-19T03:39:35;96615.81;;;10.47;64.20
3260;BME280;68938;48.150;14.004;2023-10-19T03:42:02;96622.50;;;10.50;63.81
3260;BME280;68938;48.150;14.004;2023-10-19T03:44:29;96607.03;;;10.51;64.09
3260;BME280;68938;48.150;14.004;2023-10-19T03:46:56;96602.00;;;10.50;64.19
3260;BME280;68938;48.150;14.004;2023-10-19T03:49:24;96598.03;;;10.44;64.70
3260;BME280;68938;48.150;14.004;2023-10-19T03:51:51;96585.47;;;10.39;64.63
3260;BME280;68938;48.150;14.004;2023-10-19T03:54:18;96582.06;;;10.39;64.55
3260;BME280;68938;48.150;14.004;2023-10-19T03:56:45;96578.75;;;10.37;65.11
3260;BME280;68938;48.150;14.004;2023-10-19T03:59:12;96571.91;;;10.37;64.54
3260;BME280;68938;48.150;14.004;2023-10-19T04:01:39;96572.00;;;10.36;64.49
3260;BME280;68938;48.150;14.004;2023-10-19T04:04:06;96573.22;;;10.29;64.88
3260;BME280;68938;48.150;14.004;2023-10-19T04:06:34;96580.19;;;10.25;64.78
3260;BME280;68938;48.150;14.004;2023-10-19T04:09:01;96581.38;;;10.19;65.02
3260;BME280;68938;48.150;14.004;2023-10-19T04:11:28;96576.56;;;10.13;65.29
3260;BME280;68938;48.150;14.004;2023-10-19T04:13:55;96572.44;;;10.11;65.62
3260;BME280;68938;48.150;14.004;2023-10-19T04:16:22;96578.31;;;10.13;65.47
3260;BME280;68938;48.150;14.004;2023-10-19T04:18:50;96576.56;;;10.13;65.23
3260;BME280;68938;48.150;14.004;2023-10-19T04:21:17;96576.06;;;10.07;65.22
3260;BME280;68938;48.150;14.004;2023-10-19T04:23:44;96591.44;;;10.07;65.61
3260;BME280;68938;48.150;14.004;2023-10-19T04:26:11;96593.25;;;10.05;65.54
3260;BME280;68938;48.150;14.004;2023-10-19T04:28:40;96586.22;;;10.08;65.11
3260;BME280;68938;48.150;14.004;2023-10-19T04:31:08;96587.25;;;10.06;65.47
3260;BME280;68938;48.150;14.004;2023-10-19T04:33:35;96581.09;;;10.08;65.47
3260;BME280;68938;48.150;14.004;2023-10-19T04:36:02;96575.00;;;10.11;66.30
3260;BME280;68938;48.150;14.004;2023-10-19T04:38:30;96574.00;;;10.13;65.75
3260;BME280;68938;48.150;14.004;2023-10-19T04:41:07;96575.75;;;10.13;65.49
3260;BME280;68938;48.150;14.004;2023-10-19T04:43:38;96568.88;;;10.13;65.21
3260;BME280;68938;48.150;14.004;2023-10-19T04:46:08;96563.94;;;10.10;65.51
3260;BME280;68938;48.150;14.004;2023-10-19T04:48:40;96557.81;;;10.13;65.97
3260;BME280;68938;48.150;14.004;2023-10-19T04:51:08;96555.31;;;10.11;65.98
3260;BME280;68938;48.150;14.004;2023-10-19T04:53:36;96563.84;;;10.12;65.71
3260;BME280;68938;48.150;14.004;2023-10-19T04:56:05;96566.09;;;10.02;65.54
3260;BME280;68938;48.150;14.004;2023-10-19T04:58:32;96576.56;;;9.97;65.55
3260;BME280;68938;48.150;14.004;2023-10-19T05:00:59;96574.81;;;9.98;65.83
3260;BME280;68938;48.150;14.004;2023-10-19T05:03:26;96561.28;;;9.96;66.48
3260;BME280;68938;48.150;14.004;2023-10-19T05:05:54;96566.41;;;9.96;66.27
3260;BME280;68938;48.150;14.004;2023-10-19T05:08:23;96561.03;;;10.01;66.46
3260;BME280;68938;48.150;14.004;2023-10-19T05:10:52;96568.47;;;10.05;66.00
3260;BME280;68938;48.150;14.004;2023-10-19T05:13:21;96571.88;;;10.06;65.66
3260;BME280;68938;48.150;14.004;2023-10-19T05:15:49;96560.88;;;10.04;65.70
3260;BME280;68938;48.150;14.004;2023-10-19T05:18:16;96560.97;;;10.02;65.71
3260;BME280;68938;48.150;14.004;2023-10-19T05:20:43;96566.25;;;9.99;65.44
3260;BME280;68938;48.150;14.004;2023-10-19T05:23:10;96564.50;;;10.00;65.38
3260;BME280;68938;48.150;14.004;2023-10-19T05:25:37;96565.41;;;9.99;65.58
3260;BME280;68938;48.150;14.004;2023-10-19T05:28:06;96561.19;;;9.97;66.12
3260;BME280;68938;48.150;14.004;2023-10-19T05:30:36;96571.44;;;9.97;65.85
3260;BME280;68938;48.150;14.004;2023-10-19T05:33:03;96569.94;;;9.93;65.69
3260;BME280;68938;48.150;14.004;2023-10-19T05:35:30;96569.03;;;9.94;66.18
3260;BME280;68938;48.150;14.004;2023-10-19T05:37:57;96554.75;;;9.90;65.52
3260;BME280;68938;48.150;14.004;2023-10-19T05:40:25;96564.81;;;9.93;65.86
3260;BME280;68938;48.150;14.004;2023-10-19T05:42:52;96566.66;;;9.91;65.94
3260;BME280;68938;48.150;14.004;2023-10-19T05:45:19;96573.56;;;9.89;65.83
3260;BME280;68938;48.150;14.004;2023-10-19T05:47:47;96578.84;;;9.86;65.96
3260;BME280;68938;48.150;14.004;2023-10-19T05:50:14;96584.72;;;9.88;65.48
3260;BME280;68938;48.150;14.004;2023-10-19T05:52:42;96581.16;;;9.91;66.29
3260;BME280;68938;48.150;14.004;2023-10-19T05:55:10;96581.81;;;9.94;65.55
3260;BME280;68938;48.150;14.004;2023-10-19T05:57:39;96583.34;;;9.99;65.90
3260;BME280;68938;48.150;14.004;2023-10-19T06:00:11;96575.00;;;9.95;65.73
3260;BME280;68938;48.150;14.004;2023-10-19T06:02:44;96574.75;;;10.00;65.50
3260;BME280;68938;48.150;14.004;2023-10-19T06:05:13;96579.88;;;10.00;66.19
3260;BME280;68938;48.150;14.004;2023-10-19T06:07:41;96577.16;;;10.03;66.19
3260;BME280;68938;48.150;14.004;2023-10-19T06:10:11;96581.94;;;10.09;66.13
3260;BME280;68938;48.150;14.004;2023-10-19T06:12:39;96579.19;;;10.12;66.23
3260;BME280;68938;48.150;14.004;2023-10-19T06:15:06;96571.28;;;10.16;66.96
3260;BME280;68938;48.150;14.004;2023-10-19T06:17:34;96555.81;;;10.18;67.37
3260;BME280;68938;48.150;14.004;2023-10-19T06:20:01;96563.16;;;10.26;67.31
3260;BME280;68938;48.150;14.004;2023-10-19T06:22:29;96557.66;;;10.32;67.29
3260;BME280;68938;48.150;14.004;2023-10-19T06:24:56;96556.63;;;10.36;67.96
3260;BME280;68938;48.150;14.004;2023-10-19T06:27:23;96563.06;;;10.43;67.59
3260;BME280;68938;48.150;14.004;2023-10-19T06:29:50;96560.56;;;10.41;67.37
3260;BME280;68938;48.150;14.004;2023-10-19T06:32:17;96554.34;;;10.46;67.00
3260;BME280;68938;48.150;14.004;2023-10-19T06:34:44;96557.34;;;10.54;67.11
3260;BME280;68938;48.150;14.004;2023-10-19T06:37:11;96562.97;;;10.60;66.97
3260;BME280;68938;48.150;14.004;2023-10-19T06:39:38;96559.13;;;10.67;67.09
3260;BME280;68938;48.150;14.004;2023-10-19T06:42:09;96562.75;;;10.79;67.45
3260;BME280;68938;48.150;14.004;2023-10-19T06:44:36;96562.78;;;10.94;67.40
3260;BME280;68938;48.150;14.004;2023-10-19T06:47:03;96548.44;;;11.05;66.95
3260;BME280;68938;48.150;14.004;2023-10-19T06:49:30;96540.88;;;11.18;66.92
3260;BME280;68938;48.150;14.004;2023-10-19T06:51:57;96547.84;;;11.30;66.62
3260;BME280;68938;48.150;14.004;2023-10-19T06:54:24;96538.63;;;11.42;66.60
3260;BME280;68938;48.150;14.004;2023-10-19T06:56:51;96545.56;;;11.54;66.44
3260;BME280;68938;48.150;14.004;2023-10-19T06:59:18;96556.88;;;11.66;66.60
3260;BME280;68938;48.150;14.004;2023-10-19T07:01:45;96544.50;;;11.73;66.31
3260;BME280;68938;48.150;14.004;2023-10-19T07:04:13;96547.41;;;11.81;65.96
3260;BME280;68938;48.150;14.004;2023-10-19T07:06:40;96542.84;;;11.86;65.60
3260;BME280;68938;48.150;14.004;2023-10-19T07:09:07;96532.94;;;11.80;65.17
3260;BME280;68938;48.150;14.004;2023-10-19T07:11:34;96531.25;;;11.79;64.99
3260;BME280;68938;48.150;14.004;2023-10-19T07:14:01;96533.31;;;11.88;64.79
3260;BME280;68938;48.150;14.004;2023-10-19T07:16:29;96532.00;;;11.81;64.88
3260;BME280;68938;48.150;14.004;2023-10-19T07:18:56;96547.16;;;11.85;64.40
3260;BME280;68938;48.150;14.004;2023-10-19T07:21:23;96554.66;;;12.03;64.98
3260;BME280;68938;48.150;14.004;2023-10-19T07:23:50;96548.66;;;12.17;64.60
3260;BME280;68938;48.150;14.004;2023-10-19T07:26:18;96550.69;;;12.26;64.16
3260;BME280;68938;48.150;14.004;2023-10-19T07:28:45;96546.66;;;12.22;64.07
3260;BME280;68938;48.150;14.004;2023-10-19T07:31:12;96542.13;;;12.25;63.96
3260;BME280;68938;48.150;14.004;2023-10-19T07:33:39;96546.28;;;12.28;63.60
3260;BME280;68938;48.150;14.004;2023-10-19T07:36:12;96541.03;;;12.29;63.84
3260;BME280;68938;48.150;14.004;2023-10-19T07:38:40;96545.56;;;12.12;63.80
3260;BME280;68938;48.150;14.004;2023-10-19T07:41:08;96539.31;;;12.16;63.66
3260;BME280;68938;48.150;14.004;2023-10-19T07:43:38;96532.38;;;12.30;63.65
3260;BME280;68938;48.150;14.004;2023-10-19T07:46:06;96539.09;;;12.33;63.46
3260;BME280;68938;48.150;14.004;2023-10-19T07:48:33;96551.31;;;12.29;63.30
3260;BME280;68938;48.150;14.004;2023-10-19T07:51:00;96548.44;;;12.34;63.90
3260;BME280;68938;48.150;14.004;2023-10-19T07:53:27;96553.00;;;12.43;63.53
3260;BME280;68938;48.150;14.004;2023-10-19T07:55:54;96555.53;;;12.57;63.21
3260;BME280;68938;48.150;14.004;2023-10-19T07:58:21;96542.72;;;12.70;63.63
3260;BME280;68938;48.150;14.004;2023-10-19T08:00:48;96537.34;;;12.61;63.07
3260;BME280;68938;48.150;14.004;2023-10-19T08:03:15;96547.44;;;12.64;62.90
3260;BME280;68938;48.150;14.004;2023-10-19T08:05:43;96542.34;;;12.76;62.84
3260;BME280;68938;48.150;14.004;2023-10-19T08:08:10;96537.63;;;12.83;62.91
3260;BME280;68938;48.150;14.004;2023-10-19T08:10:37;96524.56;;;12.86;62.41
3260;BME280;68938;48.150;14.004;2023-10-19T08:13:04;96527.53;;;12.80;62.29
3260;BME280;68938;48.150;14.004;2023-10-19T08:15:31;96524.44;;;12.88;62.75
3260;BME280;68938;48.150;14.004;2023-10-19T08:17:58;96523.66;;;13.00;62.86
3260;BME280;68938;48.150;14.004;2023-10-19T08:20:25;96521.78;;;13.02;62.29
3260;BME280;68938;48.150;14.004;2023-10-19T08:22:54;96529.03;;;13.10;62.00
3260;BME280;68938;48.150;14.004;2023-10-19T08:25:22;96540.56;;;13.17;61.72
3260;BME280;68938;48.150;14.004;2023-10-19T08:27:51;96546.59;;;13.30;61.63
3260;BME280;68938;48.150;14.004;2023-10-19T08:30:20;96534.16;;;13.22;60.89
3260;BME280;68938;48.150;14.004;2023-10-19T08:32:52;96543.56;;;13.23;60.75
3260;BME280;68938;48.150;14.004;2023-10-19T08:35:20;96525.56;;;13.36;60.34
3260;BME280;68938;48.150;14.004;2023-10-19T08:37:48;96526.69;;;13.32;60.36
3260;BME280;68938;48.150;14.004;2023-10-19T08:40:15;96517.41;;;13.30;60.35
3260;BME280;68938;48.150;14.004;2023-10-19T08:42:46;96527.53;;;13.45;60.95
3260;BME280;68938;48.150;14.004;2023-10-19T08:45:14;96529.50;;;13.55;60.30
3260;BME280;68938;48.150;14.004;2023-10-19T08:48:00;96530.19;;;13.69;60.14
3260;BME280;68938;48.150;14.004;2023-10-19T08:50:32;96533.69;;;13.68;60.06
3260;BME280;68938;48.150;14.004;2023-10-19T08:53:04;96535.63;;;13.78;60.31
3260;BME280;68938;48.150;14.004;2023-10-19T08:55:33;96529.97;;;13.85;59.66
3260;BME280;68938;48.150;14.004;2023-10-19T08:58:17;96528.00;;;13.89;59.29
3260;BME280;68938;48.150;14.004;2023-10-19T09:00:49;96530.09;;;14.08;59.02
3260;BME280;68938;48.150;14.004;2023-10-19T09:03:18;96512.97;;;14.19;58.15
3260;BME280;68938;48.150;14.004;2023-10-19T09:05:46;96515.00;;;14.27;58.00
3260;BME280;68938;48.150;14.004;2023-10-19T09:08:18;96511.56;;;14.39;57.87
3260;BME280;68938;48.150;14.004;2023-10-19T09:10:46;96514.13;;;14.39;57.75
3260;BME280;68938;48.150;14.004;2023-10-19T09:13:14;96520.28;;;14.50;57.62
3260;BME280;68938;48.150;14.004;2023-10-19T09:15:41;96513.78;;;14.57;57.07
3260;BME280;68938;48.150;14.004;2023-10-19T09:18:17;96511.19;;;14.57;57.49
3260;BME280;68938;48.150;14.004;2023-10-19T09:20:50;96513.59;;;14.47;57.79
3260;BME280;68938;48.150;14.004;2023-10-19T09:23:22;96512.47;;;14.51;57.99
3260;BME280;68938;48.150;14.004;2023-10-19T09:25:50;96507.28;;;14.51;57.86
3260;BME280;68938;48.150;14.004;2023-10-19T09:28:17;96511.81;;;14.60;57.58
3260;BME280;68938;48.150;14.004;2023-10-19T09:30:46;96523.50;;;14.53;58.02
3260;BME280;68938;48.150;14.004;2023-10-19T09:33:13;96518.00;;;14.58;58.31
3260;BME280;68938;48.150;14.004;2023-10-19T09:35:41;96505.56;;;14.63;58.67
3260;BME280;68938;48.150;14.004;2023-10-19T09:38:08;96507.28;;;14.51;58.45
3260;BME280;68938;48.150;14.004;2023-10-19T09:40:36;96504.16;;;14.59;58.39
3260;BME280;68938;48.150;14.004;2023-10-19T09:43:05;96497.75;;;14.64;58.14
3260;BME280;68938;48.150;14.004;2023-10-19T09:45:41;96496.91;;;14.64;58.10
3260;BME280;68938;48.150;14.004;2023-10-19T09:48:09;96488.97;;;14.67;58.12
3260;BME280;68938;48.150;14.004;2023-10-19T09:50:36;96483.50;;;14.59;58.75
3260;BME280;68938;48.150;14.004;2023-10-19T09:53:04;96485.44;;;14.68;58.33
3260;BME280;68938;48.150;14.004;2023-10-19T09:55:36;96484.69;;;14.42;58.12
3260;BME280;68938;48.150;14.004;2023-10-19T09:58:19;96481.66;;;14.37;58.78
3260;BME280;68938;48.150;14.004;2023-10-19T10:00:49;96480.69;;;14.51;58.96
3260;BME280;68938;48.150;14.004;2023-10-19T10:03:53;96480.06;;;14.71;58.59
3260;BME280;68938;48.150;14.004;2023-10-19T10:09:18;96473.66;;;14.99;58.09
3260;BME280;68938;48.150;14.004;2023-10-19T10:11:54;96467.38;;;15.14;57.26
3260;BME280;68938;48.150;14.004;2023-10-19T10:14:23;96466.88;;;15.21;57.45
3260;BME280;68938;48.150;14.004;2023-10-19T10:17:02;96462.66;;;15.31;57.50
3260;BME280;68938;48.150;14.004;2023-10-19T10:19:29;96464.78;;;15.37;56.11
3260;BME280;68938;48.150;14.004;2023-10-19T10:22:15;96457.88;;;15.49;56.51
3260;BME280;68938;48.150;14.004;2023-10-19T10:24:42;96467.50;;;15.47;56.79
3260;BME280;68938;48.150;14.004;2023-10-19T10:27:11;96449.78;;;15.42;56.04
3260;BME280;68938;48.150;14.004;2023-10-19T10:29:54;96442.47;;;15.47;55.56
3260;BME280;68938;48.150;14.004;2023-10-19T10:38:05;96434.38;;;15.52;56.39
3260;BME280;68938;48.150;14.004;2023-10-19T10:40:46;96443.78;;;15.53;56.30
3260;BME280;68938;48.150;14.004;2023-10-19T10:43:17;96428.63;;;15.48;56.23
3260;BME280;68938;48.150;14.004;2023-10-19T10:45:45;96423.34;;;15.50;56.61
3260;BME280;68938;48.150;14.004;2023-10-19T10:48:17;96422.03;;;15.55;57.10
3260;BME280;68938;48.150;14.004;2023-10-19T10:50:45;96427.81;;;15.59;57.28
3260;BME280;68938;48.150;14.004;2023-10-19T10:53:15;96424.38;;;15.58;56.15
3260;BME280;68938;48.150;14.004;2023-10-19T10:55:43;96412.16;;;15.60;56.29
3260;BME280;68938;48.150;14.004;2023-10-19T10:58:15;96396.53;;;15.62;56.42
3260;BME280;68938;48.150;14.004;2023-10-19T11:00:44;96375.03;;;15.61;56.46
3260;BME280;68938;48.150;14.004;2023-10-19T11:03:12;96368.69;;;15.65;56.31
3260;BME280;68938;48.150;14.004;2023-10-19T11:05:39;96358.47;;;15.75;56.27
3260;BME280;68938;48.150;14.004;2023-10-19T11:08:12;96356.34;;;15.80;56.38
3260;BME280;68938;48.150;14.004;2023-10-19T11:10:43;96365.25;;;15.87;55.89
3260;BME280;68938;48.150;14.004;2023-10-19T11:13:14;96346.03;;;15.80;55.89
3260;BME280;68938;48.150;14.004;2023-10-19T11:15:49;96344.00;;;15.84;56.18
3260;BME280;68938;48.150;14.004;2023-10-19T11:18:37;96341.47;;;15.73;56.20
3260;BME280;68938;48.150;14.004;2023-10-19T11:21:10;96333.94;;;15.70;56.39
3260;BME280;68938;48.150;14.004;2023-10-19T11:23:45;96338.47;;;15.88;57.73
3260;BME280;68938;48.150;14.004;2023-10-19T11:26:18;96332.75;;;16.06;56.96
3260;BME280;68938;48.150;14.004;2023-10-19T11:28:47;96331.75;;;15.97;56.44
3260;BME280;68938;48.150;14.004;2023-10-19T11:31:29;96333.44;;;16.08;55.95
3260;BME280;68938;48.150;14.004;2023-10-19T11:33:57;96331.34;;;16.02;55.71
3260;BME280;68938;48.150;14.004;2023-10-19T11:36:24;96339.69;;;16.05;55.85
3260;BME280;68938;48.150;14.004;2023-10-19T11:38:52;96348.28;;;16.27;55.94
3260;BME280;68938;48.150;14.004;2023-10-19T11:41:20;96341.41;;;16.37;55.52
3260;BME280;68938;48.150;14.004;2023-10-19T11:43:49;96335.06;;;16.41;55.39
3260;BME280;68938;48.150;14.004;2023-10-19T11:46:17;96344.19;;;16.45;55.75
3260;BME280;68938;48.150;14.004;2023-10-19T11:48:45;96348.75;;;16.53;56.10
3260;BME280;68938;48.150;14.004;2023-10-19T11:51:12;96338.81;;;16.58;55.49
3260;BME280;68938;48.150;14.004;2023-10-19T11:53:39;96337.06;;;16.58;55.03
3260;BME280;68938;48.150;14.004;2023-10-19T11:56:08;96335.59;;;16.66;55.64
3260;BME280;68938;48.150;14.004;2023-10-19T11:58:36;96333.13;;;16.64;55.33
3260;BME280;68938;48.150;14.004;2023-10-19T12:01:04;96318.72;;;16.71;55.34
3260;BME280;68938;48.150;14.004;2023-10-19T12:03:31;96316.03;;;16.73;55.06
3260;BME280;68938;48.150;14.004;2023-10-19T12:05:58;96314.44;;;16.81;54.33
3260;BME280;68938;48.150;14.004;2023-10-19T12:08:26;96314.88;;;16.87;55.00
3260;BME280;68938;48.150;14.004;2023-10-19T12:10:53;96312.47;;;16.95;55.16
3260;BME280;68938;48.150;14.004;2023-10-19T12:13:20;96313.16;;;16.97;54.36
3260;BME280;68938;48.150;14.004;2023-10-19T12:15:47;96320.25;;;17.04;54.86
3260;BME280;68938;48.150;14.004;2023-10-19T12:18:14;96324.97;;;17.20;55.54
3260;BME280;68938;48.150;14.004;2023-10-19T12:20:41;96323.22;;;17.31;54.53
3260;BME280;68938;48.150;14.004;2023-10-19T12:23:08;96322.84;;;17.45;54.63
3260;BME280;68938;48.150;14.004;2023-10-19T12:25:35;96317.28;;;17.59;53.65
3260;BME280;68938;48.150;14.004;2023-10-19T12:28:21;96297.09;;;17.63;53.38
3260;BME280;68938;48.150;14.004;2023-10-19T12:30:49;96291.88;;;17.53;52.95
3260;BME280;68938;48.150;14.004;2023-10-19T12:33:16;96284.66;;;17.66;52.76
3260;BME280;68938;48.150;14.004;2023-10-19T12:35:44;96287.84;;;17.80;52.84
3260;BME280;68938;48.150;14.004;2023-10-19T12:38:12;96278.78;;;17.74;52.34
3260;BME280;68938;48.150;14.004;2023-10-19T12:40:39;96275.69;;;17.90;52.55
3260;BME280;68938;48.150;14.004;2023-10-19T12:43:06;96268.72;;;18.00;52.50
3260;BME280;68938;48.150;14.004;2023-10-19T12:45:33;96266.81;;;18.02;51.55
3260;BME280;68938;48.150;14.004;2023-10-19T12:48:00;96262.72;;;17.90;51.12
3260;BME280;68938;48.150;14.004;2023-10-19T12:50:30;96260.81;;;17.92;52.13
3260;BME280;68938;48.150;14.004;2023-10-19T12:52:58;96262.56;;;17.91;51.99
3260;BME280;68938;48.150;14.004;2023-10-19T12:55:25;96255.38;;;17.85;51.89
3260;BME280;68938;48.150;14.004;2023-10-19T12:57:53;96253.03;;;17.82;51.59
3260;BME280;68938;48.150;14.004;2023-10-19T13:00:20;96253.59;;;17.86;52.23
3260;BME280;68938;48.150;14.004;2023-10-19T13:02:47;96246.34;;;17.80;51.75
3260;BME280;68938;48.150;14.004;2023-10-19T13:05:14;96238.56;;;17.80;51.99
3260;BME280;68938;48.150;14.004;2023-10-19T13:07:42;96241.53;;;17.56;52.29
3260;BME280;68938;48.150;14.004;2023-10-19T13:10:09;96237.84;;;17.29;53.00
3260;BME280;68938;48.150;14.004;2023-10-19T13:12:36;96243.75;;;17.50;53.51
3260;BME280;68938;48.150;14.004;2023-10-19T13:15:04;96241.00;;;17.62;52.60
3260;BME280;68938;48.150;14.004;2023-10-19T13:17:32;96232.28;;;17.72;53.63